createdAt,value
2022-12-04T00:01:25.736Z,173.43
2022-12-04T00:03:54.556Z,185.38
2022-12-04T00:06:25.168Z,157.60
2022-12-04T00:08:53.913Z,178.70
2022-12-04T00:11:24.039Z,174.48
2022-12-04T00:13:52.505Z,180.57
2022-12-04T00:16:23.909Z,154.50
2022-12-04T00:18:52.150Z,180.98
2022-12-04T00:21:21.628Z,165.45
2022-12-04T00:23:51.548Z,169.75
2022-12-04T00:26:22.609Z,184.55
2022-12-04T00:28:53.202Z,163.23
2022-12-04T00:31:24.941Z,166.57
2022-12-04T00:33:53.520Z,190.57
2022-12-04T00:36:23.947Z,174.30
2022-12-04T00:38:53.556Z,178.65
2022-12-04T00:41:26.776Z,174.50
2022-12-04T00:43:55.240Z,187.55
2022-12-04T00:46:23.952Z,190.27
2022-12-04T00:48:53.266Z,197.57
2022-12-04T00:51:23.352Z,189.18
2022-12-04T00:53:53.525Z,218.80
2022-12-04T00:56:24.131Z,222.07
2022-12-04T00:58:54.743Z,214.88
2022-12-04T01:01:24.506Z,191.20
2022-12-04T01:03:52.973Z,209.60
2022-12-04T01:06:23.294Z,194.75
2022-12-04T01:08:53.905Z,181.05
2022-12-04T01:11:23.103Z,208.20
2022-12-04T01:13:51.827Z,215.00
2022-12-04T01:16:22.752Z,205.23
2022-12-04T01:18:51.347Z,239.55
2022-12-04T01:21:20.233Z,222.73
2022-12-04T01:23:48.477Z,236.70
2022-12-04T01:26:18.252Z,257.10
2022-12-04T01:28:46.436Z,225.82
2022-12-04T01:31:16.913Z,200.85
2022-12-04T01:33:45.575Z,212.77
2022-12-04T01:36:15.838Z,239.77
2022-12-04T01:38:44.367Z,251.73
2022-12-04T01:41:14.523Z,217.85
2022-12-04T01:43:44.141Z,256.63
2022-12-04T01:46:12.907Z,233.93
2022-12-04T01:48:44.932Z,299.85
2022-12-04T01:51:18.756Z,274.02
2022-12-04T01:53:50.865Z,306.15
2022-12-04T01:56:20.669Z,215.43
2022-12-04T01:58:55.201Z,204.73
2022-12-04T02:01:23.787Z,340.73
2022-12-04T02:03:51.957Z,243.07
2022-12-04T02:06:20.131Z,246.35
2022-12-04T02:08:48.440Z,227.15
2022-12-04T02:11:28.344Z,410.90
2022-12-04T02:14:04.336Z,390.33
2022-12-04T02:16:38.904Z,351.08
2022-12-04T02:19:22.952Z,450.75
2022-12-04T02:21:53.609Z,324.52
2022-12-04T02:24:46.795Z,449.85
2022-12-04T02:27:32.027Z,386.92
2022-12-04T02:30:05.600Z,392.95
2022-12-04T02:32:40.927Z,577.90
2022-12-04T02:35:15.100Z,528.67
2022-12-04T02:37:47.085Z,315.70
2022-12-04T02:40:22.002Z,471.33
2022-12-04T02:42:59.185Z,293.00
2022-12-04T02:45:32.699Z,346.65
2022-12-04T02:48:05.565Z,446.40
2022-12-04T02:50:38.659Z,354.27
2022-12-04T02:53:11.576Z,306.23
2022-12-04T02:55:43.925Z,401.35
2022-12-04T02:58:17.511Z,345.23
2022-12-04T03:00:49.784Z,260.17
2022-12-04T03:03:22.700Z,358.25
2022-12-04T03:05:57.165Z,537.42
2022-12-04T03:08:30.841Z,539.50
2022-12-04T03:11:01.507Z,412.25
2022-12-04T03:13:34.525Z,257.65
2022-12-04T03:16:08.533Z,380.90
2022-12-04T03:18:41.137Z,304.73
2022-12-04T03:21:12.207Z,253.60
2022-12-04T03:23:45.385Z,356.05
2022-12-04T03:26:20.268Z,251.43
2022-12-04T03:28:52.825Z,355.85
2022-12-04T03:31:30.612Z,283.27
2022-12-04T03:34:02.369Z,299.23
2022-12-04T03:36:34.697Z,331.50
2022-12-04T03:39:09.620Z,320.33
2022-12-04T03:41:50.101Z,247.60
2022-12-04T03:44:24.450Z,311.38
2022-12-04T03:47:00.206Z,254.50
2022-12-04T03:49:34.581Z,264.50
2022-12-04T03:52:08.431Z,293.13
2022-12-04T03:54:42.083Z,282.98
2022-12-04T03:57:15.332Z,261.98
2022-12-04T03:59:51.130Z,230.70
2022-12-04T04:02:29.142Z,357.98
2022-12-04T04:04:59.971Z,357.00
2022-12-04T04:07:35.818Z,324.13
2022-12-04T04:10:08.930Z,344.80
2022-12-04T04:12:42.588Z,295.63
2022-12-04T04:15:32.385Z,325.80
2022-12-04T04:18:20.716Z,248.32
2022-12-04T04:21:11.441Z,301.02
2022-12-04T04:24:01.479Z,303.40
2022-12-04T04:26:34.458Z,277.35
2022-12-04T04:29:02.943Z,362.65
2022-12-04T04:31:39.293Z,293.77
2022-12-04T04:34:15.818Z,278.10
2022-12-04T04:36:55.222Z,249.98
2022-12-04T04:39:31.628Z,305.50
2022-12-04T04:42:05.865Z,307.63
2022-12-04T04:44:42.227Z,328.35
2022-12-04T04:47:17.732Z,360.92
2022-12-04T04:49:51.056Z,276.10
2022-12-04T04:52:21.350Z,390.17
2022-12-04T04:54:49.502Z,308.45
2022-12-04T04:57:27.767Z,323.02
2022-12-04T04:59:56.005Z,263.90
2022-12-04T05:02:26.921Z,535.35
2022-12-04T05:04:56.924Z,537.47
2022-12-04T05:07:25.073Z,438.88
2022-12-04T05:09:53.283Z,483.30
2022-12-04T05:12:21.598Z,528.13
2022-12-04T05:14:49.848Z,515.40
2022-12-04T05:17:18.321Z,365.42
2022-12-04T05:19:56.669Z,458.83
2022-12-04T05:22:29.092Z,436.10
2022-12-04T05:24:57.638Z,472.65
2022-12-04T05:27:27.021Z,406.65
2022-12-04T05:29:56.265Z,403.65
2022-12-04T05:32:26.077Z,467.35
2022-12-04T05:34:56.048Z,307.27
2022-12-04T05:37:25.099Z,493.60
2022-12-04T05:39:55.045Z,394.85
2022-12-04T05:42:23.545Z,523.30
2022-12-04T05:44:51.676Z,469.73
2022-12-04T05:47:19.841Z,425.80
2022-12-04T05:49:48.005Z,483.75
2022-12-04T05:52:16.310Z,512.03
2022-12-04T05:54:44.433Z,443.45
2022-12-04T05:57:13.989Z,418.77
2022-12-04T05:59:42.170Z,418.60
2022-12-04T06:02:10.363Z,398.52
2022-12-04T06:04:38.907Z,364.02
2022-12-04T06:07:07.082Z,385.50
2022-12-04T06:09:35.245Z,399.45
2022-12-04T06:12:03.527Z,518.78
2022-12-04T06:14:39.131Z,516.05
2022-12-04T06:17:08.030Z,457.70
2022-12-04T06:19:36.228Z,473.77
2022-12-04T06:22:04.437Z,289.67
2022-12-04T06:24:32.616Z,481.17
2022-12-04T06:29:50.852Z,537.03
2022-12-04T06:32:21.872Z,270.23
2022-12-04T06:34:53.146Z,314.33
2022-12-04T06:37:22.262Z,439.13
2022-12-04T06:39:50.543Z,447.10
2022-12-04T06:42:18.907Z,281.33
2022-12-04T06:44:47.073Z,412.90
2022-12-04T06:47:16.573Z,272.67
2022-12-04T06:49:46.061Z,262.35
2022-12-04T06:52:14.238Z,343.83
2022-12-04T06:54:42.524Z,276.20
2022-12-04T06:57:10.736Z,321.55
2022-12-04T06:59:39.221Z,416.40
2022-12-04T07:02:07.546Z,445.33
2022-12-04T07:04:37.113Z,507.60
2022-12-04T07:07:05.243Z,422.15
2022-12-04T07:09:33.377Z,421.60
2022-12-04T07:12:01.556Z,426.77
2022-12-04T07:14:29.749Z,278.70
2022-12-04T07:16:58.528Z,269.17
2022-12-04T07:19:26.751Z,355.60
2022-12-04T07:21:56.293Z,339.67
2022-12-04T07:24:24.463Z,343.90
2022-12-04T07:26:52.645Z,244.23
2022-12-04T07:29:20.760Z,319.52
2022-12-04T07:31:49.076Z,249.43
2022-12-04T07:34:17.246Z,257.73
2022-12-04T07:36:45.381Z,298.58
2022-12-04T07:39:15.709Z,315.23
2022-12-04T07:41:43.820Z,366.83
2022-12-04T07:44:12.273Z,241.32
2022-12-04T07:46:40.412Z,348.42
2022-12-04T07:49:08.593Z,350.88
2022-12-04T07:51:36.728Z,284.95
2022-12-04T07:54:04.924Z,307.08
2022-12-04T07:56:34.707Z,346.85
2022-12-04T07:59:03.795Z,281.23
2022-12-04T08:01:32.519Z,295.63
2022-12-04T08:04:03.354Z,296.20
2022-12-04T08:06:34.835Z,336.77
2022-12-04T08:09:09.159Z,271.60
2022-12-04T08:11:39.847Z,254.13
2022-12-04T08:14:09.826Z,381.38
2022-12-04T08:16:38.200Z,290.27
2022-12-04T08:19:06.520Z,258.17
2022-12-04T08:21:34.953Z,357.27
2022-12-04T08:24:03.583Z,345.23
2022-12-04T08:26:33.731Z,327.50
2022-12-04T08:29:04.480Z,363.73
2022-12-04T08:31:37.264Z,312.13
2022-12-04T08:34:07.789Z,343.90
2022-12-04T08:36:36.328Z,313.55
2022-12-04T08:39:04.957Z,279.08
2022-12-04T08:41:33.795Z,338.45
2022-12-04T08:44:03.396Z,251.40
2022-12-04T08:46:31.839Z,217.35
2022-12-04T08:49:00.317Z,231.05
2022-12-04T08:51:29.969Z,295.33
2022-12-04T08:53:59.942Z,363.85
2022-12-04T08:56:30.413Z,294.38
2022-12-04T08:58:59.113Z,297.52
2022-12-04T09:01:29.965Z,257.77
2022-12-04T09:03:58.938Z,230.68
2022-12-04T09:06:27.565Z,214.88
2022-12-04T09:08:56.305Z,243.40
2022-12-04T09:11:26.899Z,245.02
2022-12-04T09:13:55.884Z,243.00
2022-12-04T09:16:26.152Z,236.85
2022-12-04T09:18:56.346Z,259.98
2022-12-04T09:21:26.093Z,241.88
2022-12-04T09:24:03.570Z,229.98
2022-12-04T09:26:33.698Z,229.80
2022-12-04T09:29:06.748Z,290.27
2022-12-04T09:31:35.757Z,235.65
2022-12-04T09:34:05.329Z,236.73
2022-12-04T09:36:33.518Z,196.13
2022-12-04T09:39:01.678Z,225.23
2022-12-04T09:42:00.856Z,242.15
2022-12-04T09:44:33.976Z,212.32
2022-12-04T09:47:04.434Z,248.05
2022-12-04T09:49:39.782Z,207.95
2022-12-04T09:52:21.735Z,259.38
2022-12-04T09:54:52.155Z,235.80
2022-12-04T09:57:29.817Z,248.05
2022-12-04T09:59:58.715Z,265.33
2022-12-04T10:02:39.260Z,287.23
2022-12-04T10:05:19.980Z,265.20
2022-12-04T10:07:57.104Z,237.73
2022-12-04T10:10:35.345Z,267.73
2022-12-04T10:13:22.562Z,225.40
2022-12-04T10:15:54.640Z,212.25
2022-12-04T10:18:41.872Z,212.70
2022-12-04T10:21:27.020Z,203.95
2022-12-04T10:24:06.610Z,207.82
2022-12-04T10:26:40.460Z,321.67
2022-12-04T10:29:15.786Z,259.55
2022-12-04T10:31:47.041Z,249.27
2022-12-04T10:34:20.102Z,265.63
2022-12-04T10:36:53.091Z,250.60
2022-12-04T10:39:25.898Z,225.20
2022-12-04T10:41:59.162Z,226.45
2022-12-04T10:44:33.668Z,193.82
2022-12-04T10:47:05.486Z,189.45
2022-12-04T10:49:36.023Z,209.55
2022-12-04T10:52:06.450Z,194.75
2022-12-04T10:54:36.625Z,184.75
2022-12-04T10:57:07.302Z,194.65
2022-12-04T10:59:36.150Z,174.77
2022-12-04T11:02:12.744Z,169.70
2022-12-04T11:04:42.747Z,175.48
2022-12-04T11:07:25.711Z,156.40
2022-12-04T11:09:59.822Z,152.23
2022-12-04T11:12:28.810Z,144.95
2022-12-04T11:20:47.974Z,154.50
2022-12-04T11:23:19.035Z,146.43
2022-12-04T11:28:55.555Z,155.55
2022-12-04T11:31:38.159Z,149.43
2022-12-04T11:34:11.581Z,162.63
2022-12-04T11:36:42.408Z,149.63
2022-12-04T11:39:25.454Z,147.55
2022-12-04T11:42:05.131Z,165.07
2022-12-04T11:44:35.179Z,157.15
2022-12-04T11:47:05.318Z,142.50
2022-12-04T11:49:33.942Z,148.05
2022-12-04T11:52:15.507Z,149.38
2022-12-04T11:57:31.222Z,152.85
2022-12-04T12:00:10.831Z,147.18
2022-12-04T12:03:10.788Z,138.20
2022-12-04T12:06:14.945Z,152.35
2022-12-04T12:09:25.040Z,167.27
2022-12-04T12:11:58.965Z,159.63
2022-12-04T12:14:34.330Z,159.90
2022-12-04T12:17:12.775Z,156.65
2022-12-04T12:20:12.190Z,159.90
2022-12-04T12:23:12.442Z,181.82
2022-12-04T12:25:52.077Z,156.07
2022-12-04T12:29:12.864Z,181.10
2022-12-04T12:32:25.952Z,189.40
2022-12-04T12:35:10.614Z,189.20
2022-12-04T12:37:58.179Z,197.90
2022-12-04T12:40:46.851Z,184.05
2022-12-04T12:43:43.961Z,189.75
2022-12-04T12:46:48.104Z,206.48
2022-12-04T12:50:00.228Z,201.45
2022-12-04T12:52:55.587Z,193.23
2022-12-04T12:55:58.168Z,212.07
2022-12-04T12:58:48.395Z,204.10
2022-12-04T13:01:41.759Z,213.95
2022-12-04T13:04:26.028Z,197.80
2022-12-04T13:07:59.348Z,223.85
2022-12-04T13:10:48.299Z,240.40
2022-12-04T13:13:41.584Z,230.02
2022-12-04T13:16:57.775Z,206.48
2022-12-04T13:19:34.741Z,197.18
2022-12-04T13:22:29.761Z,197.93
2022-12-04T13:25:53.167Z,216.50
2022-12-04T13:29:16.222Z,224.93
2022-12-04T13:32:13.948Z,214.02
2022-12-04T13:35:19.624Z,216.07
2022-12-04T13:38:44.205Z,227.80
2022-12-04T13:41:46.887Z,218.52
2022-12-04T13:55:00.863Z,236.57
2022-12-04T13:57:29.293Z,230.32
2022-12-04T14:00:05.878Z,263.33
2022-12-04T14:02:38.328Z,266.67
2022-12-04T14:05:09.033Z,236.68
2022-12-04T14:07:39.826Z,290.37
2022-12-04T14:10:27.922Z,277.58
2022-12-04T14:13:01.817Z,257.27
2022-12-04T14:15:32.243Z,249.35
2022-12-04T14:18:03.957Z,220.55
2022-12-04T14:20:33.781Z,230.00
2022-12-04T14:23:26.610Z,254.32
2022-12-04T14:26:00.680Z,275.13
2022-12-04T14:28:42.404Z,251.57
2022-12-04T14:31:31.629Z,256.10
2022-12-04T14:34:02.696Z,241.50
2022-12-04T14:36:34.949Z,321.58
2022-12-04T14:39:10.130Z,250.10
2022-12-04T14:41:40.570Z,222.20
2022-12-04T14:44:15.970Z,259.42
2022-12-04T14:46:48.691Z,205.82
2022-12-04T14:49:30.136Z,226.30
2022-12-04T14:52:07.311Z,241.30
2022-12-04T14:54:41.968Z,302.23
2022-12-04T14:57:25.549Z,232.80
2022-12-04T14:59:55.664Z,271.98
2022-12-04T15:02:29.709Z,252.95
2022-12-04T15:04:58.374Z,220.27
2022-12-04T15:07:30.480Z,222.30
2022-12-04T15:10:18.192Z,247.25
2022-12-04T15:12:49.981Z,243.88
2022-12-04T15:15:25.355Z,231.02
2022-12-04T15:18:02.345Z,243.90
2022-12-04T15:20:38.678Z,210.32
2022-12-04T15:23:07.415Z,211.20
2022-12-04T15:25:41.921Z,202.70
2022-12-04T15:28:17.893Z,202.40
2022-12-04T15:30:50.815Z,204.10
2022-12-04T15:33:23.246Z,242.95
2022-12-04T15:35:56.272Z,242.25
2022-12-04T15:38:24.776Z,220.73
2022-12-04T15:40:55.611Z,258.48
2022-12-04T15:43:41.983Z,232.10
2022-12-04T15:46:14.328Z,243.20
2022-12-04T15:48:47.603Z,267.50
2022-12-04T15:51:17.900Z,305.50
2022-12-04T15:53:47.851Z,325.75
2022-12-04T15:56:19.561Z,322.85
2022-12-04T15:59:00.064Z,436.40
2022-12-04T16:01:28.631Z,244.63
2022-12-04T16:03:57.520Z,297.45
2022-12-04T16:06:28.402Z,339.23
2022-12-04T16:09:03.613Z,266.75
2022-12-04T16:11:34.625Z,273.92
2022-12-04T16:14:20.295Z,539.05
2022-12-04T16:16:50.476Z,573.92
2022-12-04T16:19:30.565Z,522.50
2022-12-04T16:21:58.764Z,608.05
2022-12-04T16:24:29.791Z,666.08
2022-12-04T16:27:00.068Z,535.35
2022-12-04T16:29:30.536Z,796.50
2022-12-04T16:32:03.261Z,561.28
2022-12-04T16:34:31.877Z,896.05
2022-12-04T16:37:00.736Z,574.72
2022-12-04T16:39:28.864Z,1074.03
2022-12-04T16:41:56.980Z,745.10
2022-12-04T16:44:27.792Z,674.05
2022-12-04T16:46:57.327Z,954.30
2022-12-04T16:49:31.522Z,901.53
2022-12-04T16:52:05.317Z,882.70
2022-12-04T16:54:33.640Z,666.92
2022-12-04T16:57:01.941Z,969.70
2022-12-04T16:59:30.100Z,823.13
2022-12-04T17:02:01.371Z,760.75
2022-12-04T17:04:29.720Z,775.65
2022-12-04T17:06:57.924Z,1113.78
2022-12-04T17:09:28.901Z,765.75
2022-12-04T17:11:57.073Z,1042.32
2022-12-04T17:14:25.196Z,1242.18
2022-12-04T17:16:55.027Z,1074.05
2022-12-04T17:19:24.595Z,817.90
2022-12-04T17:21:52.712Z,184.02
2022-12-04T17:24:20.862Z,167.20
2022-12-04T17:26:49.022Z,589.58
2022-12-04T17:29:20.257Z,368.35
2022-12-04T17:31:48.411Z,566.35
2022-12-04T17:34:17.564Z,712.83
2022-12-04T17:36:47.061Z,428.38
2022-12-04T17:39:15.169Z,237.27
2022-12-04T17:41:43.280Z,604.95
2022-12-04T17:44:11.414Z,367.13
2022-12-04T17:46:39.610Z,438.15
2022-12-04T17:49:07.776Z,392.65
2022-12-04T17:51:36.184Z,333.80
2022-12-04T17:54:06.485Z,273.05
2022-12-04T17:56:37.796Z,269.00
2022-12-04T17:59:06.822Z,553.75
2022-12-04T18:01:43.940Z,413.05
2022-12-04T18:04:20.704Z,625.50
2022-12-04T18:06:49.257Z,215.13
2022-12-04T18:09:18.896Z,213.95
2022-12-04T18:11:48.536Z,137.75
2022-12-04T18:14:19.344Z,298.98
2022-12-04T18:16:52.021Z,680.53
2022-12-04T18:19:21.360Z,473.73
2022-12-04T18:21:49.764Z,600.65
2022-12-04T18:24:19.804Z,462.70
2022-12-04T18:26:51.438Z,459.70
2022-12-04T18:29:21.765Z,345.30
2022-12-04T18:31:53.466Z,563.20
2022-12-04T18:34:22.823Z,428.90
2022-12-04T18:36:51.357Z,834.58
2022-12-04T18:39:23.168Z,569.97
2022-12-04T18:41:51.806Z,471.88
2022-12-04T18:44:19.992Z,422.45
2022-12-04T18:46:51.090Z,295.40
2022-12-04T18:49:19.234Z,542.85
2022-12-04T18:51:49.968Z,685.75
2022-12-04T18:54:27.381Z,582.28
2022-12-04T18:56:55.600Z,553.83
2022-12-04T18:59:28.988Z,418.52
2022-12-04T19:02:00.291Z,581.47
2022-12-04T19:04:31.488Z,591.13
2022-12-04T19:06:59.912Z,153.85
2022-12-04T19:12:18.496Z,250.50
2022-12-04T19:14:49.198Z,139.48
2022-12-04T19:17:20.619Z,536.03
2022-12-04T19:19:51.529Z,321.83
2022-12-04T19:22:19.783Z,130.07
2022-12-04T19:24:49.606Z,128.93
2022-12-04T19:27:20.544Z,273.05
2022-12-04T19:29:55.565Z,245.23
2022-12-04T19:32:24.754Z,156.57
2022-12-04T19:34:52.904Z,120.38
2022-12-04T19:37:21.177Z,297.95
2022-12-04T19:39:50.667Z,279.50
2022-12-04T19:42:21.840Z,105.20
2022-12-04T19:44:50.262Z,145.68
2022-12-04T19:47:19.030Z,299.13
2022-12-04T19:49:47.561Z,144.13
2022-12-04T19:52:15.749Z,213.70
2022-12-04T19:54:46.707Z,216.63
2022-12-04T19:57:18.972Z,158.38
2022-12-04T19:59:49.958Z,151.27
2022-12-04T20:02:19.807Z,159.15
2022-12-04T20:04:48.029Z,152.73
2022-12-04T20:07:16.187Z,247.45
2022-12-04T20:09:52.017Z,216.18
2022-12-04T20:12:22.037Z,175.73
2022-12-04T20:14:50.225Z,107.85
2022-12-04T20:17:18.364Z,206.95
2022-12-04T20:19:46.538Z,117.72
2022-12-04T20:22:17.497Z,136.05
2022-12-04T20:24:52.885Z,153.48
2022-12-04T20:27:22.398Z,152.23
2022-12-04T20:29:50.512Z,206.20
2022-12-04T20:32:18.616Z,140.32
2022-12-04T20:34:49.733Z,183.73
2022-12-04T20:37:17.884Z,125.65
2022-12-04T20:39:49.015Z,138.77
2022-12-04T20:42:17.252Z,182.73
2022-12-04T20:44:46.884Z,152.80
2022-12-04T20:47:15.337Z,164.50
2022-12-04T20:49:43.610Z,119.28
2022-12-04T20:52:11.720Z,129.00
2022-12-04T20:54:41.754Z,136.00
2022-12-04T20:57:10.519Z,121.43
2022-12-04T20:59:38.899Z,152.95
2022-12-04T21:02:11.733Z,110.22
2022-12-04T21:04:42.520Z,151.18
2022-12-04T21:07:10.653Z,108.90
2022-12-04T21:09:38.806Z,146.57
2022-12-04T21:12:28.384Z,176.95
2022-12-04T21:15:14.900Z,147.00
2022-12-04T21:17:44.420Z,89.85
2022-12-04T21:20:15.629Z,133.18
2022-12-04T21:22:43.797Z,87.00
2022-12-04T21:25:12.340Z,147.98
2022-12-04T21:27:40.460Z,91.82
2022-12-04T21:30:09.860Z,86.63
2022-12-04T21:32:37.979Z,83.57
2022-12-04T21:35:08.219Z,105.80
2022-12-04T21:37:36.908Z,76.80
2022-12-04T21:40:08.096Z,95.80
2022-12-04T21:42:36.656Z,91.35
2022-12-04T21:45:07.622Z,78.75
2022-12-04T21:47:36.403Z,90.55
2022-12-04T21:50:05.240Z,64.40
2022-12-04T21:52:34.763Z,91.40
2022-12-04T21:55:02.966Z,143.93
2022-12-04T21:57:31.120Z,124.18
2022-12-04T21:59:59.524Z,102.18
2022-12-04T22:02:27.903Z,86.15
2022-12-04T22:04:56.099Z,67.43
2022-12-04T22:07:24.220Z,69.07
2022-12-04T22:09:53.724Z,104.28
2022-12-04T22:15:10.772Z,67.80
2022-12-04T22:17:38.892Z,53.90
2022-12-04T22:20:08.557Z,59.88
2022-12-04T22:22:36.729Z,50.15
2022-12-04T22:25:06.984Z,50.28
2022-12-04T22:27:35.160Z,52.35
2022-12-04T22:30:03.592Z,51.63
2022-12-04T22:32:32.110Z,52.13
2022-12-04T22:35:00.257Z,58.55
2022-12-04T22:37:28.376Z,57.83
2022-12-04T22:39:59.668Z,48.78
2022-12-04T22:42:29.521Z,53.35
2022-12-04T22:44:57.691Z,47.35
2022-12-04T22:47:25.824Z,41.60
2022-12-04T22:49:54.075Z,41.83
2022-12-04T22:52:22.375Z,41.72
2022-12-04T22:54:51.829Z,38.92
2022-12-04T22:57:20.321Z,36.35
2022-12-04T22:59:49.838Z,34.28
2022-12-04T23:02:17.978Z,38.47
2022-12-04T23:04:46.244Z,36.83
2022-12-04T23:07:14.434Z,35.10
2022-12-04T23:09:42.724Z,32.60
2022-12-04T23:12:10.883Z,30.85
2022-12-04T23:14:39.058Z,34.30
2022-12-04T23:17:08.629Z,33.65
2022-12-04T23:19:37.019Z,28.60
2022-12-04T23:22:05.141Z,30.08
2022-12-04T23:24:33.408Z,26.63
2022-12-04T23:27:01.552Z,26.35
2022-12-04T23:29:51.993Z,23.40
2022-12-04T23:32:19.438Z,26.42
2022-12-04T23:34:47.623Z,23.75
2022-12-04T23:37:16.109Z,25.90
2022-12-04T23:39:44.258Z,22.38
2022-12-04T23:42:12.390Z,24.25
2022-12-04T23:44:40.637Z,24.90
2022-12-04T23:47:08.803Z,20.48
2022-12-04T23:49:38.384Z,24.20
2022-12-04T23:52:06.684Z,24.40
2022-12-04T23:54:37.621Z,25.83
2022-12-04T23:57:06.176Z,24.63
2022-12-04T23:59:34.660Z,27.77
